Time,TemperatureF,DewpointF,PressureIn,WindDirection,WindDirectionDegrees,WindSpeedMPH,WindSpeedGustMPH,Humidity,HourlyPrecipIn,Conditions,Clouds,dailyrainin,SoftwareType,DateUTC
2013-08-24 00:22:00,59.0,56.0,29.88,SE,124,0.0,-999.0,89,-99.99,,,-99.99,,2013-08-24 07:22:00,
2013-08-24 00:42:00,59.0,55.0,29.88,SE,124,0.0,-999.0,88,-99.99,,,-99.99,,2013-08-24 07:42:00,
2013-08-24 00:53:00,59.0,55.0,29.88,SE,124,0.0,-999.0,88,-99.99,,,-99.99,,2013-08-24 07:53:00,
2013-08-24 01:12:00,59.0,56.0,29.88,SE,124,0.0,-999.0,89,-99.99,,,-99.99,,2013-08-24 08:12:00,
2013-08-24 01:22:00,59.0,56.0,29.88,SE,124,0.0,-999.0,89,-99.99,,,-99.99,,2013-08-24 08:22:00,
2013-08-24 01:52:00,59.0,56.0,29.88,SE,124,0.0,-999.0,89,-99.99,,,-99.99,,2013-08-24 08:52:00,
2013-08-24 02:11:00,59.0,56.0,29.88,SE,124,0.0,-999.0,89,-99.99,,,-99.99,,2013-08-24 09:11:00,
2013-08-24 02:22:00,59.0,56.0,29.88,SE,124,0.0,-999.0,89,-99.99,,,-99.99,,2013-08-24 09:22:00,
2013-08-24 02:44:00,59.0,56.0,29.88,SE,124,0.0,-999.0,89,-99.99,,,-99.99,,2013-08-24 09:44:00,
2013-08-24 02:53:00,58.0,55.0,29.88,SE,128,0.0,-999.0,90,-99.99,,,-99.99,,2013-08-24 09:53:00,
2013-08-24 03:13:00,58.0,55.0,29.88,SE,128,0.0,-999.0,90,-99.99,,,-99.99,,2013-08-24 10:13:00,
2013-08-24 03:23:00,58.0,55.0,29.89,SE,135,0.0,-999.0,91,-99.99,,,-99.99,,2013-08-24 10:23:00,
2013-08-24 03:42:00,58.0,56.0,29.88,SE,134,0.0,-999.0,92,-99.99,,,-99.99,,2013-08-24 10:42:00,
2013-08-24 03:53:00,58.0,56.0,29.88,SE,134,0.0,-999.0,92,-99.99,,,-99.99,,2013-08-24 10:53:00,
2013-08-24 04:11:00,58.0,56.0,29.88,SE,134,0.0,-999.0,93,-99.99,,,-99.99,,2013-08-24 11:11:00,
2013-08-24 04:22:00,58.0,56.0,29.89,SE,141,1.0,-999.0,93,-99.99,,,-99.99,,2013-08-24 11:22:00,
2013-08-24 04:52:00,57.0,55.0,29.88,SE,130,0.0,-999.0,94,-99.99,,,-99.99,,2013-08-24 11:52:00,
2013-08-24 05:11:00,57.0,55.0,29.88,SE,130,0.0,-999.0,94,-99.99,,,-99.99,,2013-08-24 12:11:00,
2013-08-24 05:21:00,57.0,55.0,29.88,SE,138,0.0,-999.0,94,-99.99,,,-99.99,,2013-08-24 12:21:00,
2013-08-24 05:41:00,57.0,55.0,29.88,SE,133,0.0,-999.0,93,-99.99,,,-99.99,,2013-08-24 12:41:00,
2013-08-24 05:52:00,57.0,55.0,29.88,SE,133,0.0,-999.0,94,-99.99,,,-99.99,,2013-08-24 12:52:00,
2013-08-24 06:11:00,57.0,55.0,29.88,SE,133,0.0,-999.0,93,-99.99,,,-99.99,,2013-08-24 13:11:00,
2013-08-24 06:22:00,57.0,55.0,29.88,SSE,154,0.0,-999.0,93,-99.99,,,-99.99,,2013-08-24 13:22:00,
2013-08-24 06:52:00,57.0,55.0,29.88,South,180,0.0,-999.0,93,-99.99,,,-99.99,,2013-08-24 13:52:00,
2013-08-24 07:11:00,57.0,55.0,29.88,South,179,0.0,-999.0,93,-99.99,,,-99.99,,2013-08-24 14:11:00,
2013-08-24 07:21:00,57.0,55.0,29.88,South,179,0.0,-999.0,94,-99.99,,,-99.99,,2013-08-24 14:21:00,
2013-08-24 07:52:00,57.0,55.0,29.88,SE,139,0.0,-999.0,94,-99.99,,,-99.99,,2013-08-24 14:52:00,
2013-08-24 08:11:00,57.0,55.0,29.88,SE,135,1.0,-999.0,94,-99.99,,,-99.99,,2013-08-24 15:11:00,
2013-08-24 08:21:00,57.0,55.0,29.88,ESE,102,0.0,-999.0,93,-99.99,,,-99.99,,2013-08-24 15:21:00,
2013-08-24 08:45:00,58.0,56.0,29.88,ESE,116,1.0,-999.0,93,-99.99,,,-99.99,,2013-08-24 15:45:00,
2013-08-24 08:54:00,58.0,55.0,29.88,SSE,148,3.0,-999.0,91,-99.99,,,-99.99,,2013-08-24 15:54:00,
2013-08-24 09:13:00,58.0,55.0,29.88,SE,134,3.0,-999.0,91,-99.99,,,-99.99,,2013-08-24 16:13:00,
2013-08-24 09:23:00,59.0,56.0,29.88,ESE,119,0.0,-999.0,90,-99.99,,,-99.99,,2013-08-24 16:23:00,
2013-08-24 10:42:00,61.0,56.0,29.88,ESE,112,0.0,-999.0,84,-99.99,,,-99.99,,2013-08-24 17:42:00,
2013-08-24 10:52:00,62.0,57.0,29.88,ESE,112,0.0,-999.0,83,-99.99,,,-99.99,,2013-08-24 17:52:00,
2013-08-24 11:42:00,64.0,57.0,29.88,SE,137,1.0,-999.0,79,-99.99,,,-99.99,,2013-08-24 18:42:00,
2013-08-24 16:42:00,72.0,57.0,29.86,South,184,0.0,-999.0,59,-99.99,,,-99.99,,2013-08-24 23:42:00,
2013-08-24 17:41:00,70.0,55.0,29.85,SW,219,0.0,-999.0,60,-99.99,,,-99.99,,2013-08-25 00:41:00,
2013-08-24 17:52:00,69.0,55.0,29.85,SSE,166,1.0,-999.0,60,-99.99,,,-99.99,,2013-08-25 00:52:00,
2013-08-24 18:11:00,68.0,54.0,29.85,SSW,203,0.0,-999.0,61,-99.99,,,-99.99,,2013-08-25 01:11:00,
2013-08-24 18:22:00,69.0,55.0,29.85,SW,223,2.0,-999.0,60,-99.99,,,-99.99,,2013-08-25 01:22:00,
2013-08-24 18:42:00,68.0,54.0,29.85,SW,223,2.0,-999.0,60,-99.99,,,-99.99,,2013-08-25 01:42:00,
2013-08-24 18:52:00,68.0,54.0,29.85,SSE,160,0.0,-999.0,60,-99.99,,,-99.99,,2013-08-25 01:52:00,
2013-08-24 19:11:00,68.0,54.0,29.85,WNW,300,1.0,-999.0,62,-99.99,,,-99.99,,2013-08-25 02:11:00,
2013-08-24 19:22:00,66.0,55.0,29.85,SW,215,1.0,-999.0,67,-99.99,,,-99.99,,2013-08-25 02:22:00,
2013-08-24 19:42:00,65.0,54.0,29.85,SW,215,2.0,-999.0,67,-99.99,,,-99.99,,2013-08-25 02:42:00,
2013-08-24 19:52:00,64.0,53.0,29.85,SSW,205,2.0,-999.0,67,-99.99,,,-99.99,,2013-08-25 02:52:00,
2013-08-24 20:23:00,63.0,53.0,29.86,SW,214,0.0,-999.0,69,-99.99,,,-99.99,,2013-08-25 03:23:00,
2013-08-24 20:54:00,62.0,53.0,29.86,SW,214,0.0,-999.0,73,-99.99,,,-99.99,,2013-08-25 03:54:00,
2013-08-24 21:02:00,-999.0,-99.9,29.87,SW,214,0.0,-999.0,-999,-99.99,,,-99.99,,2013-08-25 04:02:00,
2013-08-24 21:14:00,62.0,54.0,29.87,SW,214,0.0,-999.0,74,-99.99,,,-99.99,,2013-08-25 04:14:00,
2013-08-24 21:25:00,61.0,53.0,29.87,SW,229,0.0,-999.0,75,-99.99,,,-99.99,,2013-08-25 04:25:00,
2013-08-24 21:43:00,61.0,53.0,29.88,SW,229,0.0,-999.0,76,-99.99,,,-99.99,,2013-08-25 04:43:00,
2013-08-24 21:54:00,60.0,52.0,29.88,SSW,193,0.0,-999.0,76,-99.99,,,-99.99,,2013-08-25 04:54:00,
2013-08-24 22:12:00,59.0,53.0,29.88,SSE,150,0.0,-999.0,80,-99.99,,,-99.99,,2013-08-25 05:12:00,
2013-08-24 22:22:00,58.0,53.0,29.88,SSE,148,0.0,-999.0,82,-99.99,,,-99.99,,2013-08-25 05:22:00,
2013-08-24 22:42:00,58.0,53.0,29.89,SSE,148,0.0,-999.0,82,-99.99,,,-99.99,,2013-08-25 05:42:00,
2013-08-24 22:52:00,58.0,53.0,29.89,SSE,148,0.0,-999.0,82,-99.99,,,-99.99,,2013-08-25 05:52:00,
2013-08-24 23:12:00,58.0,53.0,29.89,SE,136,0.0,-999.0,82,-99.99,,,-99.99,,2013-08-25 06:12:00,
2013-08-24 23:21:00,58.0,53.0,29.88,SE,142,0.0,-999.0,82,-99.99,,,-99.99,,2013-08-25 06:21:00,
2013-08-24 23:43:00,58.0,53.0,29.88,SE,142,0.0,-999.0,82,-99.99,,,-99.99,,2013-08-25 06:43:00,
2013-08-24 23:52:00,57.0,52.0,29.89,SE,130,0.0,-999.0,83,-99.99,,,-99.99,,2013-08-25 06:52:00,